Time;durP1;ratioP1;P1;durP2;ratioP2;P2;SDS_P1;SDS_P2;PMS_P1;PMS_P2;Temp;Humidity;BMP_temperature;BMP_pressure;BME280_temperature;BME280_humidity;BME280_pressure;Samples;Min_cycle;Max_cycle;Signal;HPM_P1;HPM_P2
2022/09/06 00:00:07;;;;;;;4.68;4.20;;;19.60;99.90;;;;;;5075472;28;20293;-91
2022/09/06 00:02:36;;;;;;;4.45;4.15;;;19.60;99.90;;;;;;5075550;28;20223;-91
2022/09/06 00:05:08;;;;;;;4.82;4.40;;;19.50;99.90;;;;;;5076377;28;20225;-90
2022/09/06 00:07:37;;;;;;;4.68;3.92;;;19.50;99.90;;;;;;5076275;28;20224;-91
2022/09/06 00:10:06;;;;;;;3.85;3.55;;;19.50;99.90;;;;;;5077552;28;20208;-91
2022/09/06 00:12:35;;;;;;;4.13;3.83;;;19.50;99.90;;;;;;5076100;28;20302;-91
2022/09/06 00:15:04;;;;;;;4.60;4.10;;;19.50;99.90;;;;;;5075709;28;20211;-90
2022/09/06 00:17:32;;;;;;;4.90;4.50;;;19.40;99.90;;;;;;5075534;28;20259;-90
2022/09/06 00:20:01;;;;;;;4.25;3.95;;;19.40;99.90;;;;;;5075384;28;20292;-91
2022/09/06 00:22:31;;;;;;;4.50;4.10;;;19.40;99.90;;;;;;5076193;28;20221;-90
2022/09/06 00:24:59;;;;;;;4.68;4.30;;;19.30;99.90;;;;;;5075311;28;20221;-90
2022/09/06 00:27:27;;;;;;;5.35;4.85;;;19.30;99.90;;;;;;5074889;28;20264;-90
2022/09/06 00:29:56;;;;;;;5.28;4.78;;;19.20;99.90;;;;;;5075392;28;20217;-90
2022/09/06 00:32:24;;;;;;;4.80;4.43;;;19.20;99.90;;;;;;5074853;28;20312;-90
2022/09/06 00:34:53;;;;;;;5.15;4.75;;;19.00;99.90;;;;;;5075012;28;20221;-90
2022/09/06 00:37:21;;;;;;;4.97;4.57;;;19.00;99.90;;;;;;5075149;28;20225;-89
2022/09/06 00:39:51;;;;;;;5.30;4.80;;;18.90;99.90;;;;;;5074573;28;20305;-91
2022/09/06 00:42:19;;;;;;;4.80;4.45;;;18.90;99.90;;;;;;5074953;28;20260;-91
2022/09/06 00:44:49;;;;;;;5.03;4.53;;;18.80;99.90;;;;;;5074657;28;20288;-90
2022/09/06 00:47:17;;;;;;;7.07;5.05;;;18.80;99.90;;;;;;5074857;28;20297;-90
2022/09/06 00:49:49;;;;;;;4.22;3.92;;;18.80;99.90;;;;;;5074463;28;20232;-90
2022/09/06 00:52:19;;;;;;;6.35;5.13;;;18.80;99.90;;;;;;5074414;28;20315;-91
2022/09/06 00:54:48;;;;;;;4.60;4.20;;;18.70;99.90;;;;;;5074768;28;20287;-90
2022/09/06 00:57:18;;;;;;;4.45;4.13;;;18.70;99.90;;;;;;5074576;28;20284;-90
2022/09/06 00:59:48;;;;;;;7.22;5.50;;;18.70;99.90;;;;;;5074876;28;20205;-90
2022/09/06 01:02:16;;;;;;;4.53;4.13;;;18.70;99.90;;;;;;5074698;28;20300;-91
2022/09/06 01:04:45;;;;;;;5.03;4.53;;;18.70;99.90;;;;;;5076485;28;20232;-91
2022/09/06 01:07:22;;;;;;;4.38;4.07;;;18.70;99.90;;;;;;5076084;28;20284;-89
2022/09/06 01:10:05;;;;;;;4.10;3.80;;;18.70;99.90;;;;;;5077091;28;20208;-91
2022/09/06 01:12:48;;;;;;;4.47;4.18;;;18.70;99.90;;;;;;5074945;28;20229;-89
2022/09/06 01:15:28;;;;;;;13.23;5.15;;;18.70;99.90;;;;;;5076681;28;20207;-89
2022/09/06 01:18:08;;;;;;;4.63;4.30;;;18.70;99.90;;;;;;5074886;28;20230;-89
2022/09/06 01:20:57;;;;;;;5.68;4.43;;;18.70;99.90;;;;;;5074124;28;20207;-89
2022/09/06 01:24:05;;;;;;;6.03;5.20;;;18.70;99.90;;;;;;5074573;28;20213;-90
2022/09/06 01:27:01;;;;;;;4.15;3.85;;;18.60;99.90;;;;;;5074030;28;20287;-90
2022/09/06 01:29:40;;;;;;;4.72;4.40;;;18.70;99.90;;;;;;5062389;28;20276;-92
2022/09/06 01:32:15;;;;;;;13.07;5.72;;;18.60;99.90;;;;;;5074325;28;20231;-91
2022/09/06 01:34:48;;;;;;;4.88;4.53;;;18.60;99.90;;;;;;5074253;28;20212;-91
2022/09/06 01:37:20;;;;;;;5.65;4.75;;;18.60;99.90;;;;;;5074075;28;20205;-91
2022/09/06 01:39:48;;;;;;;5.35;4.85;;;18.60;99.90;;;;;;5073515;28;20247;-92
2022/09/06 01:42:19;;;;;;;5.03;4.55;;;18.60;99.90;;;;;;5073753;28;20245;-91
2022/09/06 01:44:52;;;;;;;5.30;4.90;;;18.60;99.90;;;;;;5073956;28;20217;-92
2022/09/06 01:47:27;;;;;;;6.03;4.72;;;18.50;99.90;;;;;;5074139;28;20232;-91
2022/09/06 01:50:11;;;;;;;6.85;5.18;;;18.50;99.90;;;;;;5073577;28;20216;-92
2022/09/06 01:52:47;;;;;;;5.25;4.82;;;18.50;99.90;;;;;;5073504;28;20259;-91
2022/09/06 01:55:26;;;;;;;5.20;4.80;;;18.50;99.90;;;;;;5073658;28;20231;-91
2022/09/06 01:58:11;;;;;;;5.03;4.63;;;18.50;99.90;;;;;;5073459;28;20236;-91
2022/09/06 02:00:48;;;;;;;4.88;4.47;;;18.50;99.90;;;;;;5073211;28;20209;-91
2022/09/06 02:03:27;;;;;;;6.00;5.40;;;18.50;99.90;;;;;;5073515;28;20220;-91
2022/09/06 02:05:59;;;;;;;5.72;4.72;;;18.40;99.90;;;;;;5073626;28;20224;-90
2022/09/06 02:08:32;;;;;;;4.43;4.13;;;18.40;99.90;;;;;;5073246;28;20232;-92
2022/09/06 02:11:03;;;;;;;5.15;4.65;;;18.40;99.90;;;;;;5073373;28;20293;-91
2022/09/06 02:13:36;;;;;;;5.18;4.68;;;18.40;99.90;;;;;;5072974;28;20247;-90
2022/09/06 02:16:08;;;;;;;5.18;4.78;;;18.30;99.90;;;;;;5073365;28;20236;-90
2022/09/06 02:18:40;;;;;;;5.50;4.95;;;18.30;99.90;;;;;;5072310;28;20205;-90
2022/09/06 02:21:10;;;;;;;5.43;4.95;;;18.20;99.90;;;;;;5073358;28;20221;-90
2022/09/06 02:23:40;;;;;;;4.63;4.22;;;18.20;99.90;;;;;;5072768;28;20220;-90
2022/09/06 02:26:12;;;;;;;8.10;6.40;;;18.10;99.90;;;;;;5072338;28;20308;-91
2022/09/06 02:28:40;;;;;;;8.50;5.70;;;18.20;99.90;;;;;;5073211;28;20228;-90
2022/09/06 02:31:16;;;;;;;4.90;4.53;;;18.10;99.90;;;;;;5073046;28;20245;-90
2022/09/06 02:33:47;;;;;;;5.13;4.75;;;18.10;99.90;;;;;;5073042;28;20273;-90
2022/09/06 02:36:15;;;;;;;5.75;5.13;;;18.10;99.90;;;;;;5072885;28;20205;-90
2022/09/06 02:38:45;;;;;;;4.55;4.25;;;18.10;99.90;;;;;;5072233;28;20232;-89
2022/09/06 02:41:17;;;;;;;5.30;4.80;;;18.10;99.90;;;;;;5072698;28;20241;-91
2022/09/06 02:43:45;;;;;;;6.72;4.72;;;18.00;99.90;;;;;;5073110;28;20275;-91
2022/09/06 02:46:15;;;;;;;6.55;5.22;;;18.00;99.90;;;;;;5073031;28;20338;-91
2022/09/06 02:48:44;;;;;;;6.47;5.30;;;17.90;99.90;;;;;;5072346;28;20211;-91
2022/09/06 02:51:12;;;;;;;7.82;6.05;;;17.80;99.90;;;;;;5072204;28;20300;-91
2022/09/06 02:53:41;;;;;;;4.90;4.55;;;17.80;99.90;;;;;;5072511;28;20235;-91
2022/09/06 02:56:09;;;;;;;5.95;5.40;;;17.80;99.90;;;;;;5072809;28;20233;-91
2022/09/06 02:58:38;;;;;;;4.88;4.57;;;17.70;99.90;;;;;;5072545;28;20231;-91
2022/09/06 03:01:07;;;;;;;7.85;5.72;;;17.70;99.90;;;;;;5072364;28;20308;-91
2022/09/06 03:03:37;;;;;;;5.38;4.97;;;17.70;99.90;;;;;;5072551;28;20206;-91
2022/09/06 03:06:06;;;;;;;5.55;4.93;;;17.70;99.90;;;;;;5072471;28;20303;-90
2022/09/06 03:08:35;;;;;;;5.55;5.05;;;17.70;99.90;;;;;;5073161;28;20240;-90
2022/09/06 03:11:03;;;;;;;4.57;4.25;;;17.70;99.90;;;;;;5073433;28;20245;-91
2022/09/06 03:13:31;;;;;;;5.28;4.88;;;17.70;99.90;;;;;;5073157;28;20243;-90
2022/09/06 03:16:00;;;;;;;5.45;5.05;;;17.60;99.90;;;;;;5072458;28;20265;-91
2022/09/06 03:18:30;;;;;;;5.28;4.88;;;17.60;99.90;;;;;;5072403;28;20224;-91
2022/09/06 03:21:00;;;;;;;6.07;5.47;;;17.60;99.90;;;;;;5071846;28;20296;-91
2022/09/06 03:23:29;;;;;;;6.40;5.80;;;17.60;99.90;;;;;;5072423;28;20274;-91
2022/09/06 03:25:58;;;;;;;6.10;5.32;;;17.60;99.90;;;;;;5072241;28;20255;-91
2022/09/06 03:28:26;;;;;;;7.00;4.97;;;17.50;99.90;;;;;;5071907;28;20252;-91
2022/09/06 03:30:55;;;;;;;6.43;5.60;;;17.50;99.90;;;;;;5075839;28;20201;-91
2022/09/06 03:33:23;;;;;;;5.43;4.93;;;17.50;99.90;;;;;;5076285;28;20208;-90
2022/09/06 03:35:53;;;;;;;5.70;5.28;;;17.40;99.90;;;;;;5076101;28;20231;-90
2022/09/06 03:38:24;;;;;;;5.78;5.28;;;17.40;99.90;;;;;;5076274;28;20213;-91
2022/09/06 03:40:53;;;;;;;4.65;4.25;;;17.50;99.90;;;;;;5076017;28;20236;-91
2022/09/06 03:43:23;;;;;;;5.68;5.15;;;17.50;99.90;;;;;;5075930;28;20205;-90
2022/09/06 03:45:53;;;;;;;6.15;5.55;;;17.50;99.90;;;;;;5075922;28;20240;-89
2022/09/06 03:48:23;;;;;;;5.30;4.90;;;17.50;99.90;;;;;;5075871;28;20215;-90
2022/09/06 03:50:54;;;;;;;5.75;5.30;;;17.50;99.90;;;;;;5075696;28;20232;-91
2022/09/06 03:53:25;;;;;;;5.63;5.13;;;17.50;99.90;;;;;;5075833;28;20264;-91
2022/09/06 03:55:54;;;;;;;5.80;4.88;;;17.50;99.90;;;;;;5075866;28;20236;-90
2022/09/06 03:58:24;;;;;;;5.07;4.68;;;17.50;99.90;;;;;;5075536;28;20296;-91
2022/09/06 04:01:02;;;;;;;6.63;6.03;;;17.50;99.90;;;;;;5075657;28;20205;-91
2022/09/06 04:03:30;;;;;;;4.95;4.55;;;17.50;99.90;;;;;;5075686;28;20279;-91
2022/09/06 04:05:59;;;;;;;5.70;5.20;;;17.50;99.90;;;;;;5075869;28;20225;-91
2022/09/06 04:08:29;;;;;;;6.07;5.55;;;17.50;99.90;;;;;;5075371;28;20283;-91
2022/09/06 04:10:58;;;;;;;6.45;5.85;;;17.50;99.90;;;;;;5075326;28;20209;-91
2022/09/06 04:13:27;;;;;;;8.35;5.20;;;17.50;99.90;;;;;;5075498;28;20224;-91
2022/09/06 04:15:56;;;;;;;6.10;5.50;;;17.50;99.90;;;;;;5075388;28;20251;-90
2022/09/06 04:18:24;;;;;;;6.30;4.95;;;17.40;99.90;;;;;;5075245;28;20316;-91
2022/09/06 04:20:55;;;;;;;5.95;5.47;;;17.50;99.90;;;;;;5075556;28;20284;-91
2022/09/06 04:23:24;;;;;;;8.27;5.93;;;17.50;99.90;;;;;;5075313;28;20235;-91
2022/09/06 04:25:55;;;;;;;6.65;5.88;;;17.40;99.90;;;;;;5075225;28;20255;-90
2022/09/06 04:28:25;;;;;;;5.78;5.28;;;17.50;99.90;;;;;;5074930;28;20319;-91
2022/09/06 04:30:54;;;;;;;5.28;4.88;;;17.50;99.90;;;;;;5075363;28;20211;-90
2022/09/06 04:33:28;;;;;;;5.80;5.30;;;17.40;99.90;;;;;;5075630;28;20220;-90
2022/09/06 04:35:58;;;;;;;5.63;5.22;;;17.40;99.90;;;;;;5076140;28;20236;-90
2022/09/06 04:38:27;;;;;;;6.57;5.63;;;17.40;99.90;;;;;;5075958;28;20225;-90
2022/09/06 04:40:58;;;;;;;5.43;5.03;;;17.40;99.90;;;;;;5075118;28;20231;-89
2022/09/06 04:43:26;;;;;;;6.72;5.28;;;17.40;99.90;;;;;;5076905;28;20236;-90
2022/09/06 04:45:54;;;;;;;9.32;5.78;;;17.40;99.90;;;;;;5075805;28;20372;-91
2022/09/06 04:48:23;;;;;;;5.38;4.97;;;17.40;99.90;;;;;;5074893;28;20262;-90
2022/09/06 04:50:51;;;;;;;5.50;5.00;;;17.40;99.90;;;;;;5074380;28;20297;-90
2022/09/06 04:53:19;;;;;;;4.97;4.50;;;17.40;99.90;;;;;;5074827;28;20312;-90
2022/09/06 04:55:48;;;;;;;7.80;5.80;;;17.40;99.90;;;;;;5080043;28;20288;-89
2022/09/06 04:58:18;;;;;;;5.88;5.38;;;17.50;99.90;;;;;;5076274;28;20201;-90
2022/09/06 05:00:46;;;;;;;5.90;5.30;;;17.40;99.90;;;;;;5074783;28;20215;-91
2022/09/06 05:03:15;;;;;;;5.65;5.15;;;17.50;99.90;;;;;;5074735;28;20232;-91
2022/09/06 05:05:43;;;;;;;9.15;5.95;;;17.50;99.90;;;;;;5074682;28;20296;-91
2022/09/06 05:08:11;;;;;;;6.47;5.65;;;17.50;99.90;;;;;;5074600;28;20244;-91
2022/09/06 05:10:40;;;;;;;6.50;5.85;;;17.50;99.90;;;;;;5074305;28;20296;-90
2022/09/06 05:13:08;;;;;;;7.13;4.55;;;17.50;99.90;;;;;;5075064;28;20268;-91
2022/09/06 05:15:38;;;;;;;8.15;5.57;;;17.50;99.90;;;;;;5074632;28;20288;-91
2022/09/06 05:18:06;;;;;;;6.68;5.28;;;17.50;99.90;;;;;;5074403;28;20225;-91
2022/09/06 05:20:35;;;;;;;8.75;5.47;;;17.50;99.90;;;;;;5074020;28;20205;-90
2022/09/06 05:23:04;;;;;;;6.30;5.72;;;17.50;99.90;;;;;;5074073;28;20228;-91
2022/09/06 05:25:32;;;;;;;6.30;5.70;;;17.60;99.90;;;;;;5074075;28;20294;-90
2022/09/06 05:28:00;;;;;;;5.05;4.65;;;17.60;99.90;;;;;;5073358;28;20221;-90
2022/09/06 05:30:28;;;;;;;5.45;4.95;;;17.60;99.90;;;;;;5073683;28;20304;-92
2022/09/06 05:32:58;;;;;;;6.15;5.60;;;17.60;99.90;;;;;;5073582;28;20300;-90
2022/09/06 05:35:26;;;;;;;6.05;5.20;;;17.60;99.90;;;;;;5073872;28;20375;-91
2022/09/06 05:37:55;;;;;;;6.10;5.50;;;17.70;99.90;;;;;;5073823;28;20213;-91
2022/09/06 05:40:23;;;;;;;8.70;6.07;;;17.70;99.90;;;;;;5073759;28;20288;-90
2022/09/06 05:42:51;;;;;;;6.38;5.75;;;17.70;99.90;;;;;;5073557;28;20284;-90
2022/09/06 05:45:19;;;;;;;6.32;5.72;;;17.80;99.90;;;;;;5073759;28;20296;-90
2022/09/06 05:47:48;;;;;;;9.57;4.75;;;17.80;99.90;;;;;;5073502;28;20236;-91
2022/09/06 05:50:18;;;;;;;5.55;5.07;;;17.80;99.90;;;;;;5073632;28;20276;-89
2022/09/06 05:52:46;;;;;;;5.47;4.97;;;17.90;99.90;;;;;;5073828;28;20308;-91
2022/09/06 05:55:15;;;;;;;5.03;4.57;;;17.90;99.90;;;;;;5073547;28;20277;-90
2022/09/06 05:57:43;;;;;;;5.10;4.47;;;18.00;99.90;;;;;;5073954;28;20284;-89
2022/09/06 06:00:13;;;;;;;5.43;4.93;;;18.00;99.90;;;;;;5073383;28;20244;-90
2022/09/06 06:02:41;;;;;;;6.22;5.63;;;18.00;99.90;;;;;;5073495;28;20237;-90
2022/09/06 06:05:10;;;;;;;4.90;4.38;;;18.00;99.90;;;;;;5073648;28;20279;-90
2022/09/06 06:07:39;;;;;;;5.90;5.38;;;18.10;99.90;;;;;;5072942;28;20288;-90
2022/09/06 06:10:09;;;;;;;5.78;5.28;;;18.10;99.90;;;;;;5073140;28;20213;-91
2022/09/06 06:12:37;;;;;;;5.55;5.15;;;18.20;99.90;;;;;;5072905;28;20288;-91
2022/09/06 06:15:06;;;;;;;5.18;4.70;;;18.20;99.90;;;;;;5073390;28;20284;-91
2022/09/06 06:17:35;;;;;;;5.00;4.53;;;18.30;99.90;;;;;;5073159;28;20296;-91
2022/09/06 06:20:03;;;;;;;8.32;6.05;;;18.30;99.90;;;;;;5072985;28;20284;-91
2022/09/06 06:22:32;;;;;;;5.70;5.03;;;18.40;99.90;;;;;;5072553;28;20251;-91
2022/09/06 06:25:01;;;;;;;5.70;5.18;;;18.40;99.90;;;;;;5073045;28;20244;-91
2022/09/06 06:27:32;;;;;;;7.57;5.90;;;18.50;99.90;;;;;;5072355;28;20308;-91
2022/09/06 06:30:01;;;;;;;7.05;5.22;;;18.50;99.90;;;;;;5072919;28;20235;-91
2022/09/06 06:32:29;;;;;;;5.85;4.95;;;18.60;99.90;;;;;;5072610;28;20239;-91
2022/09/06 06:34:57;;;;;;;5.32;4.82;;;18.70;99.90;;;;;;5072937;28;20258;-91
2022/09/06 06:37:25;;;;;;;6.35;4.75;;;18.70;99.90;;;;;;5072843;28;20261;-90
2022/09/06 06:39:54;;;;;;;6.13;5.68;;;18.80;99.90;;;;;;5072518;28;20277;-91
2022/09/06 06:42:24;;;;;;;6.35;5.85;;;18.80;99.90;;;;;;5072987;28;20299;-91
2022/09/06 06:44:52;;;;;;;5.68;5.20;;;18.90;99.90;;;;;;5074083;28;20233;-90
2022/09/06 06:47:21;;;;;;;5.88;5.43;;;18.90;99.90;;;;;;5073349;28;20335;-91
2022/09/06 06:49:49;;;;;;;5.38;4.82;;;19.00;99.90;;;;;;5073662;28;20200;-91
2022/09/06 06:52:20;;;;;;;5.25;4.85;;;19.00;99.90;;;;;;5073444;28;20293;-91
2022/09/06 06:54:49;;;;;;;6.13;5.60;;;19.10;99.90;;;;;;5073352;28;20208;-91
2022/09/06 06:57:17;;;;;;;8.52;6.05;;;19.10;99.90;;;;;;5074242;28;20200;-91
2022/09/06 06:59:46;;;;;;;6.63;5.38;;;19.20;99.90;;;;;;5072423;28;20282;-91
2022/09/06 07:02:16;;;;;;;8.88;6.20;;;19.20;99.90;;;;;;5072780;28;20296;-91
2022/09/06 07:04:44;;;;;;;4.85;4.50;;;19.30;99.90;;;;;;5072253;28;20209;-91
2022/09/06 07:07:13;;;;;;;6.10;5.32;;;19.40;99.90;;;;;;5072603;28;20209;-91
2022/09/06 07:09:56;;;;;;;5.82;5.28;;;19.40;99.90;;;;;;5072312;28;20239;-90
2022/09/06 07:12:45;;;;;;;6.07;5.47;;;19.50;99.90;;;;;;5072137;28;20229;-91
2022/09/06 07:15:15;;;;;;;6.00;5.38;;;19.60;99.90;;;;;;5072592;28;20240;-91
2022/09/06 07:17:43;;;;;;;6.18;5.45;;;19.60;99.90;;;;;;5072571;28;20262;-91
2022/09/06 07:20:11;;;;;;;5.43;4.93;;;19.70;99.90;;;;;;5072067;28;20288;-91
2022/09/06 07:22:41;;;;;;;8.75;5.80;;;19.70;99.90;;;;;;5072559;28;20221;-91
2022/09/06 07:25:11;;;;;;;7.35;6.05;;;19.70;99.90;;;;;;5072481;28;20238;-91
2022/09/06 07:27:44;;;;;;;6.13;5.45;;;19.80;99.90;;;;;;5072056;28;20220;-90
2022/09/06 07:30:14;;;;;;;6.10;5.60;;;19.90;99.90;;;;;;5071882;28;20208;-90
2022/09/06 07:32:43;;;;;;;6.18;5.68;;;20.00;99.90;;;;;;5072177;28;20225;-92
2022/09/06 07:35:12;;;;;;;5.35;4.85;;;20.10;99.90;;;;;;5072372;28;20265;-90
2022/09/06 07:37:41;;;;;;;5.97;5.22;;;20.10;99.90;;;;;;5072574;28;20205;-91
2022/09/06 07:40:10;;;;;;;6.07;5.50;;;20.30;99.90;;;;;;5072233;28;20209;-90
2022/09/06 07:42:39;;;;;;;6.72;5.72;;;20.40;99.90;;;;;;5072025;28;20241;-91
2022/09/06 07:45:08;;;;;;;7.00;6.40;;;20.50;99.90;;;;;;5072028;28;20236;-91
2022/09/06 07:47:38;;;;;;;6.65;5.93;;;20.60;99.90;;;;;;5072186;28;20296;-91
2022/09/06 07:50:27;;;;;;;6.07;5.47;;;20.70;99.90;;;;;;5071590;28;20207;-91
2022/09/06 07:53:15;;;;;;;5.93;5.43;;;20.90;99.90;;;;;;5071391;28;20209;-91
2022/09/06 07:55:57;;;;;;;5.85;5.28;;;21.00;99.90;;;;;;5072349;28;20246;-90
2022/09/06 07:58:28;;;;;;;6.47;5.90;;;21.10;99.90;;;;;;5071770;28;20201;-91
2022/09/06 08:01:16;;;;;;;7.97;6.65;;;21.20;99.90;;;;;;5071921;28;20243;-91
2022/09/06 08:03:47;;;;;;;4.80;4.50;;;21.10;99.90;;;;;;5072450;28;20268;-90
2022/09/06 08:06:15;;;;;;;6.72;5.65;;;21.20;99.90;;;;;;5072524;28;20264;-90
2022/09/06 08:08:44;;;;;;;5.80;5.40;;;21.40;99.90;;;;;;5072488;28;20309;-91
2022/09/06 08:11:29;;;;;;;5.35;4.93;;;21.60;99.90;;;;;;5072449;28;20228;-90
2022/09/06 08:14:01;;;;;;;6.32;5.72;;;21.90;99.90;;;;;;5070631;28;20308;-90
2022/09/06 08:16:31;;;;;;;5.97;5.55;;;22.20;99.90;;;;;;5070849;28;20205;-91
2022/09/06 08:19:03;;;;;;;7.95;6.18;;;22.40;99.90;;;;;;5072939;28;20263;-90
2022/09/06 08:21:33;;;;;;;6.32;5.80;;;22.70;99.90;;;;;;5073201;28;20255;-91
2022/09/06 08:24:04;;;;;;;5.75;5.25;;;22.90;99.90;;;;;;5072931;28;20217;-91
2022/09/06 08:26:34;;;;;;;6.28;5.65;;;23.40;99.90;;;;;;5072578;28;20235;-90
2022/09/06 08:29:05;;;;;;;5.93;5.43;;;23.60;99.90;;;;;;5072874;28;20240;-90
2022/09/06 08:31:35;;;;;;;6.03;5.38;;;24.30;99.90;;;;;;5072910;28;20278;-90
2022/09/06 08:34:05;;;;;;;6.60;6.03;;;25.00;99.90;;;;;;5072400;28;20304;-90
2022/09/06 08:36:34;;;;;;;6.18;5.68;;;25.40;99.90;;;;;;5072404;28;20232;-90
2022/09/06 08:39:04;;;;;;;5.47;5.03;;;26.00;99.90;;;;;;5072749;28;20212;-90
2022/09/06 08:41:40;;;;;;;6.10;5.60;;;26.60;99.90;;;;;;5073008;28;20224;-89
2022/09/06 08:44:11;;;;;;;5.72;5.22;;;26.90;99.90;;;;;;5072515;28;20232;-90
2022/09/06 08:47:03;;;;;;;6.13;5.63;;;27.50;99.90;;;;;;5072186;28;20216;-88
2022/09/06 08:49:36;;;;;;;6.18;5.53;;;28.20;99.90;;;;;;5072259;28;20259;-88
2022/09/06 08:52:42;;;;;;;4.70;4.30;;;28.90;99.90;;;;;;5072700;28;20263;-88
2022/09/06 08:55:36;;;;;;;4.95;4.55;;;29.60;99.90;;;;;;5065841;28;20218;-89
2022/09/06 08:58:16;;;;;;;7.57;6.20;;;30.00;99.90;;;;;;5072284;28;20212;-88
2022/09/06 09:00:50;;;;;;;5.53;5.03;;;30.00;99.90;;;;;;5072582;28;20208;-88
2022/09/06 09:03:23;;;;;;;6.30;4.88;;;30.30;99.90;;;;;;5072000;28;20254;-88
2022/09/06 09:05:54;;;;;;;6.72;6.03;;;30.40;99.90;;;;;;5071845;28;20295;-89
2022/09/06 09:08:25;;;;;;;6.80;5.85;;;30.60;99.40;;;;;;5071831;28;20243;-89
2022/09/06 09:10:58;;;;;;;8.80;6.07;;;30.90;99.00;;;;;;5072189;28;20219;-88
2022/09/06 09:13:33;;;;;;;6.15;5.55;;;31.00;97.70;;;;;;5071755;28;20240;-89
2022/09/06 09:16:02;;;;;;;6.35;5.85;;;30.60;98.00;;;;;;5071669;28;20304;-89
2022/09/06 09:18:34;;;;;;;6.18;5.68;;;30.40;98.30;;;;;;5072031;28;20292;-89
2022/09/06 09:21:04;;;;;;;5.60;5.05;;;30.80;98.40;;;;;;5072200;28;20232;-89
2022/09/06 09:23:33;;;;;;;5.70;5.18;;;31.10;97.30;;;;;;5074014;28;20209;-89
2022/09/06 09:26:05;;;;;;;5.53;5.03;;;31.50;96.40;;;;;;5073860;28;20316;-88
2022/09/06 09:28:34;;;;;;;5.20;4.80;;;31.60;96.00;;;;;;5073373;28;20201;-89
2022/09/06 09:31:03;;;;;;;4.95;4.55;;;31.80;96.00;;;;;;5073751;28;20248;-89
2022/09/06 09:33:37;;;;;;;5.30;4.90;;;31.70;95.30;;;;;;5074415;28;20261;-89
2022/09/06 09:36:10;;;;;;;5.68;5.28;;;32.20;96.20;;;;;;5073825;28;20291;-89
2022/09/06 09:38:42;;;;;;;4.53;4.22;;;32.70;94.80;;;;;;5074253;28;20292;-89
2022/09/06 09:41:24;;;;;;;5.32;4.85;;;33.00;93.80;;;;;;5074281;28;20303;-90
2022/09/06 09:43:58;;;;;;;5.20;4.70;;;33.40;93.20;;;;;;5073783;28;20295;-90
2022/09/06 09:46:33;;;;;;;5.57;5.10;;;33.40;92.30;;;;;;5073966;28;20215;-89
2022/09/06 09:49:05;;;;;;;6.90;5.13;;;33.10;91.90;;;;;;5073428;28;20220;-90
2022/09/06 09:51:39;;;;;;;4.60;4.30;;;32.00;93.30;;;;;;5073511;28;20316;-89
2022/09/06 09:54:09;;;;;;;5.65;5.15;;;31.50;94.20;;;;;;5073829;28;20300;-89
2022/09/06 09:56:42;;;;;;;6.45;5.88;;;31.50;93.60;;;;;;5073586;28;20270;-90
2022/09/06 09:59:23;;;;;;;6.63;5.97;;;31.40;92.80;;;;;;5073275;28;20223;-90
2022/09/06 10:01:55;;;;;;;5.78;5.20;;;32.10;92.80;;;;;;5073802;28;20244;-90
2022/09/06 10:04:32;;;;;;;6.78;5.85;;;32.60;92.90;;;;;;5073424;28;20303;-90
2022/09/06 10:07:19;;;;;;;5.18;4.78;;;32.90;92.00;;;;;;5073480;28;20213;-90
2022/09/06 10:09:49;;;;;;;7.03;5.20;;;33.60;91.80;;;;;;5072771;28;20250;-90
2022/09/06 10:12:27;;;;;;;4.40;4.05;;;33.80;90.40;;;;;;5073041;28;20310;-90
2022/09/06 10:14:56;;;;;;;6.70;5.65;;;34.00;90.60;;;;;;5073448;28;20279;-90
2022/09/06 10:17:30;;;;;;;5.22;4.82;;;34.00;88.80;;;;;;5073417;28;20204;-89
2022/09/06 10:20:02;;;;;;;5.45;4.88;;;34.10;89.30;;;;;;5073463;28;20223;-90
2022/09/06 10:22:35;;;;;;;7.88;6.93;;;34.30;88.60;;;;;;5072795;28;20241;-91
2022/09/06 10:25:38;;;;;;;6.50;5.90;;;34.20;86.10;;;;;;5072814;28;20239;-90
2022/09/06 10:28:30;;;;;;;6.60;6.00;;;34.00;87.50;;;;;;5072843;28;20201;-91
2022/09/06 10:31:17;;;;;;;5.63;5.13;;;33.80;87.60;;;;;;5072716;28;20232;-90
2022/09/06 10:33:56;;;;;;;6.07;5.47;;;33.90;88.00;;;;;;5018931;28;20200;-90
2022/09/06 10:36:32;;;;;;;7.65;5.22;;;34.00;86.70;;;;;;5072723;28;20284;-91
2022/09/06 10:39:09;;;;;;;5.88;5.38;;;33.90;85.80;;;;;;5072167;28;20204;-90
2022/09/06 10:42:01;;;;;;;5.80;5.35;;;33.80;87.00;;;;;;5072591;28;20240;-90
2022/09/06 10:44:45;;;;;;;6.45;5.80;;;33.90;86.00;;;;;;5072665;28;20229;-90
2022/09/06 10:47:15;;;;;;;6.00;5.50;;;33.60;87.10;;;;;;5073137;28;20217;-89
2022/09/06 10:49:46;;;;;;;5.00;4.63;;;33.70;86.60;;;;;;5072077;28;20307;-89
2022/09/06 10:52:21;;;;;;;8.73;7.93;;;34.10;84.70;;;;;;5072943;28;20297;-89
2022/09/06 10:54:51;;;;;;;7.07;6.38;;;34.10;84.20;;;;;;5073503;28;20246;-91
2022/09/06 10:57:23;;;;;;;9.60;6.45;;;33.80;84.70;;;;;;5073180;28;20308;-90
2022/09/06 11:00:13;;;;;;;4.97;4.65;;;33.70;84.30;;;;;;5071952;28;20264;-91
2022/09/06 11:02:47;;;;;;;6.90;6.07;;;34.00;86.40;;;;;;5072724;28;20228;-82
2022/09/06 11:05:19;;;;;;;5.88;5.30;;;34.20;85.40;;;;;;5072229;28;20267;-91
2022/09/06 11:08:11;;;;;;;7.18;6.50;;;34.40;84.70;;;;;;5072280;28;20283;-93
2022/09/06 11:11:06;;;;;;;5.85;5.35;;;34.30;81.70;;;;;;5077496;28;20228;-92
2022/09/06 11:13:34;;;;;;;5.50;5.00;;;34.10;84.20;;;;;;5092989;28;20263;-93
2022/09/06 11:16:09;;;;;;;5.35;4.95;;;34.20;84.20;;;;;;5092834;28;20230;-91
2022/09/06 11:18:41;;;;;;;6.40;5.75;;;34.20;83.50;;;;;;5092362;28;20202;-92
2022/09/06 11:21:37;;;;;;;6.40;5.75;;;34.20;83.10;;;;;;5092874;28;20212;-92
2022/09/06 11:24:12;;;;;;;6.10;5.60;;;34.30;83.20;;;;;;5093343;28;20318;-91
2022/09/06 11:26:55;;;;;;;7.03;6.45;;;34.30;82.40;;;;;;5092492;28;20204;-92
2022/09/06 11:29:25;;;;;;;6.35;5.70;;;33.50;83.40;;;;;;5093106;28;20214;-92
2022/09/06 11:31:56;;;;;;;6.50;5.95;;;33.60;83.20;;;;;;5092195;28;20240;-92
2022/09/06 11:34:53;;;;;;;5.60;5.10;;;34.00;82.20;;;;;;5097293;28;20214;-91
2022/09/06 11:37:27;;;;;;;4.82;4.53;;;34.30;82.40;;;;;;5102371;28;20203;-91
2022/09/06 11:40:12;;;;;;;6.35;5.80;;;34.70;81.40;;;;;;5100971;28;20207;-92
2022/09/06 11:43:18;;;;;;;7.00;6.32;;;35.10;79.90;;;;;;5101297;28;20239;-91
2022/09/06 11:45:49;;;;;;;5.20;4.80;;;34.90;78.80;;;;;;5099699;28;20216;-91
2022/09/06 11:48:34;;;;;;;6.15;5.10;;;34.80;80.60;;;;;;5096112;28;20230;-91
2022/09/06 11:51:06;;;;;;;5.78;5.20;;;34.80;79.70;;;;;;5095879;28;20291;-91
2022/09/06 11:53:56;;;;;;;5.93;5.47;;;34.80;79.70;;;;;;5098035;28;20316;-91
2022/09/06 11:56:30;;;;;;;5.07;4.68;;;34.80;79.00;;;;;;5103801;28;20272;-96
2022/09/06 11:59:08;;;;;;;5.60;5.10;;;34.20;80.30;;;;;;5101412;28;20234;-95
2022/09/06 12:01:39;;;;;;;7.63;5.32;;;34.30;81.80;;;;;;5096565;28;20243;-92
2022/09/06 12:04:11;;;;;;;5.32;4.93;;;34.40;80.70;;;;;;5096639;28;20204;-92
2022/09/06 12:06:41;;;;;;;5.63;4.88;;;34.60;81.30;;;;;;5096390;28;20231;-92
2022/09/06 12:09:30;;;;;;;5.60;5.13;;;34.70;79.60;;;;;;5095744;28;20200;-92
2022/09/06 12:11:59;;;;;;;4.63;4.32;;;34.50;78.30;;;;;;5095527;28;20228;-91
2022/09/06 12:14:41;;;;;;;6.13;4.82;;;34.40;80.20;;;;;;5096088;28;20265;-91
2022/09/06 12:17:27;;;;;;;5.78;5.35;;;34.10;79.70;;;;;;5095991;28;20242;-92
2022/09/06 12:20:05;;;;;;;6.47;6.00;;;33.70;80.70;;;;;;5095602;28;20250;-91
2022/09/06 12:22:58;;;;;;;5.25;4.85;;;33.30;80.10;;;;;;5095403;28;20228;-91
2022/09/06 12:25:51;;;;;;;5.68;5.18;;;33.20;82.60;;;;;;5075992;28;20207;-91
2022/09/06 12:28:45;;;;;;;6.22;5.57;;;33.20;83.10;;;;;;5094948;28;20315;-91
2022/09/06 12:31:24;;;;;;;5.13;4.72;;;33.30;82.10;;;;;;5081161;28;20216;-89
2022/09/06 12:33:53;;;;;;;4.97;4.60;;;33.30;81.20;;;;;;5094928;28;20199;-92
2022/09/06 12:36:28;;;;;;;5.25;4.85;;;33.20;81.10;;;;;;5095251;28;20208;-91
2022/09/06 12:38:59;;;;;;;4.55;4.22;;;33.40;81.30;;;;;;5094399;28;20224;-92
2022/09/06 12:41:29;;;;;;;8.82;5.18;;;33.30;82.70;;;;;;5095171;28;20296;-91
2022/09/06 12:44:00;;;;;;;5.65;5.18;;;33.40;82.90;;;;;;5088213;28;20200;-93
2022/09/06 12:46:33;;;;;;;9.88;5.13;;;33.40;80.40;;;;;;5081441;28;20221;-94
2022/09/06 12:49:04;;;;;;;5.07;4.68;;;33.10;80.50;;;;;;5091468;28;20204;-93
2022/09/06 12:51:33;;;;;;;4.90;4.30;;;32.80;80.70;;;;;;5089884;28;20217;-94
2022/09/06 12:54:04;;;;;;;5.10;4.50;;;32.70;82.50;;;;;;5089471;28;20291;-94
2022/09/06 12:56:33;;;;;;;5.22;4.72;;;33.00;82.30;;;;;;5095013;28;20266;-94
2022/09/06 12:59:16;;;;;;;9.20;4.50;;;33.30;81.60;;;;;;5094765;28;20208;-94
2022/09/06 13:01:52;;;;;;;4.75;4.20;;;33.40;81.80;;;;;;5094129;28;20236;-93
2022/09/06 13:04:31;;;;;;;4.45;4.15;;;33.60;81.50;;;;;;5094576;28;20211;-93
2022/09/06 13:07:00;;;;;;;5.05;4.55;;;33.50;81.30;;;;;;5095006;28;20283;-93
2022/09/06 13:09:32;;;;;;;5.68;4.72;;;33.40;80.80;;;;;;5094816;28;20230;-93
2022/09/06 13:12:07;;;;;;;4.40;4.00;;;33.30;79.30;;;;;;5094121;28;20311;-94
2022/09/06 13:14:37;;;;;;;5.20;4.75;;;33.20;81.00;;;;;;5094182;28;20218;-95
2022/09/06 13:17:07;;;;;;;4.45;4.05;;;33.10;81.50;;;;;;5094625;28;20216;-94